sensor_id;sensor_type;location;lat;lon;timestamp;P1;durP1;ratioP1;P2;durP2;ratioP2
57331;SDS011;43164;50.908;18.092;2023-11-19T00:02:22;47.10;;;23.50;;
57331;SDS011;43164;50.908;18.092;2023-11-19T00:04:50;47.90;;;24.30;;
57331;SDS011;43164;50.908;18.092;2023-11-19T00:07:19;59.90;;;37.50;;
57331;SDS011;43164;50.908;18.092;2023-11-19T00:09:46;58.00;;;31.90;;
57331;SDS011;43164;50.908;18.092;2023-11-19T00:12:14;50.50;;;24.80;;
57331;SDS011;43164;50.908;18.092;2023-11-19T00:14:42;53.20;;;25.80;;
57331;SDS011;43164;50.908;18.092;2023-11-19T00:17:11;53.80;;;27.30;;
57331;SDS011;43164;50.908;18.092;2023-11-19T00:19:39;49.90;;;26.00;;
57331;SDS011;43164;50.908;18.092;2023-11-19T00:22:06;54.40;;;35.60;;
57331;SDS011;43164;50.908;18.092;2023-11-19T00:24:35;59.40;;;38.00;;
57331;SDS011;43164;50.908;18.092;2023-11-19T00:27:03;51.30;;;23.20;;
57331;SDS011;43164;50.908;18.092;2023-11-19T00:29:31;47.50;;;24.10;;
57331;SDS011;43164;50.908;18.092;2023-11-19T00:31:58;54.70;;;35.30;;
57331;SDS011;43164;50.908;18.092;2023-11-19T00:34:25;53.70;;;26.00;;
57331;SDS011;43164;50.908;18.092;2023-11-19T00:36:53;45.60;;;23.20;;
57331;SDS011;43164;50.908;18.092;2023-11-19T00:39:22;49.60;;;24.50;;
57331;SDS011;43164;50.908;18.092;2023-11-19T00:41:49;53.80;;;34.40;;
57331;SDS011;43164;50.908;18.092;2023-11-19T00:44:17;49.30;;;24.70;;
57331;SDS011;43164;50.908;18.092;2023-11-19T00:46:44;49.40;;;24.70;;
57331;SDS011;43164;50.908;18.092;2023-11-19T00:49:12;50.90;;;32.10;;
57331;SDS011;43164;50.908;18.092;2023-11-19T00:51:39;50.10;;;33.40;;
57331;SDS011;43164;50.908;18.092;2023-11-19T00:54:06;49.20;;;23.20;;
57331;SDS011;43164;50.908;18.092;2023-11-19T00:56:33;45.40;;;22.90;;
57331;SDS011;43164;50.908;18.092;2023-11-19T00:59:00;48.30;;;31.90;;
57331;SDS011;43164;50.908;18.092;2023-11-19T01:01:28;45.20;;;22.20;;
57331;SDS011;43164;50.908;18.092;2023-11-19T01:03:56;43.80;;;22.00;;
57331;SDS011;43164;50.908;18.092;2023-11-19T01:06:27;50.30;;;23.80;;
57331;SDS011;43164;50.908;18.092;2023-11-19T01:08:55;47.20;;;23.40;;
57331;SDS011;43164;50.908;18.092;2023-11-19T01:11:23;47.70;;;23.30;;
57331;SDS011;43164;50.908;18.092;2023-11-19T01:13:51;45.40;;;22.80;;
57331;SDS011;43164;50.908;18.092;2023-11-19T01:16:18;44.40;;;22.80;;
57331;SDS011;43164;50.908;18.092;2023-11-19T01:18:47;44.80;;;22.20;;
57331;SDS011;43164;50.908;18.092;2023-11-19T01:21:15;41.60;;;21.50;;
57331;SDS011;43164;50.908;18.092;2023-11-19T01:23:43;45.90;;;22.30;;
57331;SDS011;43164;50.908;18.092;2023-11-19T01:26:13;40.00;;;20.90;;
57331;SDS011;43164;50.908;18.092;2023-11-19T01:28:41;38.20;;;20.30;;
57331;SDS011;43164;50.908;18.092;2023-11-19T01:31:15;41.60;;;21.00;;
57331;SDS011;43164;50.908;18.092;2023-11-19T01:33:43;41.00;;;20.40;;
57331;SDS011;43164;50.908;18.092;2023-11-19T01:36:13;43.20;;;21.00;;
57331;SDS011;43164;50.908;18.092;2023-11-19T01:38:40;45.70;;;22.40;;
57331;SDS011;43164;50.908;18.092;2023-11-19T01:41:07;45.40;;;21.70;;
57331;SDS011;43164;50.908;18.092;2023-11-19T01:43:36;48.50;;;20.90;;
57331;SDS011;43164;50.908;18.092;2023-11-19T01:46:05;39.40;;;19.20;;
57331;SDS011;43164;50.908;18.092;2023-11-19T01:48:32;42.60;;;20.20;;
57331;SDS011;43164;50.908;18.092;2023-11-19T01:51:01;41.40;;;20.60;;
57331;SDS011;43164;50.908;18.092;2023-11-19T01:53:29;45.60;;;19.20;;
57331;SDS011;43164;50.908;18.092;2023-11-19T01:55:57;38.50;;;19.20;;
57331;SDS011;43164;50.908;18.092;2023-11-19T01:58:24;39.70;;;19.20;;
57331;SDS011;43164;50.908;18.092;2023-11-19T02:00:52;39.40;;;19.50;;
57331;SDS011;43164;50.908;18.092;2023-11-19T02:03:20;37.50;;;18.10;;
57331;SDS011;43164;50.908;18.092;2023-11-19T02:05:49;39.00;;;19.40;;
57331;SDS011;43164;50.908;18.092;2023-11-19T02:08:17;37.60;;;18.40;;
57331;SDS011;43164;50.908;18.092;2023-11-19T02:10:45;42.20;;;19.00;;
57331;SDS011;43164;50.908;18.092;2023-11-19T02:13:12;41.10;;;19.70;;
57331;SDS011;43164;50.908;18.092;2023-11-19T02:15:41;40.50;;;18.70;;
57331;SDS011;43164;50.908;18.092;2023-11-19T02:18:25;33.70;;;16.70;;
57331;SDS011;43164;50.908;18.092;2023-11-19T02:20:56;36.70;;;17.30;;
57331;SDS011;43164;50.908;18.092;2023-11-19T02:23:29;36.90;;;18.00;;
57331;SDS011;43164;50.908;18.092;2023-11-19T02:26:05;38.40;;;17.10;;
57331;SDS011;43164;50.908;18.092;2023-11-19T02:28:48;41.30;;;19.90;;
57331;SDS011;43164;50.908;18.092;2023-11-19T02:31:15;38.60;;;18.40;;
57331;SDS011;43164;50.908;18.092;2023-11-19T02:33:44;37.90;;;18.80;;
57331;SDS011;43164;50.908;18.092;2023-11-19T02:36:10;40.30;;;18.20;;
57331;SDS011;43164;50.908;18.092;2023-11-19T02:38:36;36.10;;;18.00;;
57331;SDS011;43164;50.908;18.092;2023-11-19T02:41:03;38.20;;;18.70;;
57331;SDS011;43164;50.908;18.092;2023-11-19T02:43:36;40.00;;;19.10;;
57331;SDS011;43164;50.908;18.092;2023-11-19T02:46:04;39.90;;;18.90;;
57331;SDS011;43164;50.908;18.092;2023-11-19T02:48:37;37.90;;;18.50;;
57331;SDS011;43164;50.908;18.092;2023-11-19T02:51:04;36.90;;;18.40;;
57331;SDS011;43164;50.908;18.092;2023-11-19T02:53:35;40.90;;;19.20;;
57331;SDS011;43164;50.908;18.092;2023-11-19T02:56:07;36.20;;;17.80;;
57331;SDS011;43164;50.908;18.092;2023-11-19T02:58:48;38.70;;;18.60;;
57331;SDS011;43164;50.908;18.092;2023-11-19T03:01:21;37.30;;;18.10;;
57331;SDS011;43164;50.908;18.092;2023-11-19T03:04:04;37.60;;;17.30;;
57331;SDS011;43164;50.908;18.092;2023-11-19T03:06:31;40.40;;;18.40;;
57331;SDS011;43164;50.908;18.092;2023-11-19T03:08:59;35.10;;;16.50;;
57331;SDS011;43164;50.908;18.092;2023-11-19T03:14:01;33.20;;;14.40;;
57331;SDS011;43164;50.908;18.092;2023-11-19T03:16:29;35.50;;;16.50;;
57331;SDS011;43164;50.908;18.092;2023-11-19T03:18:57;35.30;;;17.10;;
57331;SDS011;43164;50.908;18.092;2023-11-19T03:21:29;42.80;;;18.90;;
57331;SDS011;43164;50.908;18.092;2023-11-19T03:23:58;38.00;;;18.50;;
57331;SDS011;43164;50.908;18.092;2023-11-19T03:26:28;37.80;;;16.80;;
57331;SDS011;43164;50.908;18.092;2023-11-19T03:28:56;39.10;;;18.20;;
57331;SDS011;43164;50.908;18.092;2023-11-19T03:31:28;38.30;;;18.10;;
57331;SDS011;43164;50.908;18.092;2023-11-19T03:33:55;39.30;;;18.10;;
57331;SDS011;43164;50.908;18.092;2023-11-19T03:36:23;40.70;;;18.30;;
57331;SDS011;43164;50.908;18.092;2023-11-19T03:38:50;39.70;;;19.00;;
57331;SDS011;43164;50.908;18.092;2023-11-19T03:41:18;40.00;;;18.80;;
57331;SDS011;43164;50.908;18.092;2023-11-19T03:43:46;37.00;;;17.60;;
57331;SDS011;43164;50.908;18.092;2023-11-19T03:46:20;40.10;;;19.20;;
57331;SDS011;43164;50.908;18.092;2023-11-19T03:48:47;32.40;;;16.60;;
57331;SDS011;43164;50.908;18.092;2023-11-19T03:51:16;39.40;;;18.70;;
57331;SDS011;43164;50.908;18.092;2023-11-19T03:53:44;34.70;;;16.40;;
57331;SDS011;43164;50.908;18.092;2023-11-19T03:56:11;37.20;;;18.00;;
57331;SDS011;43164;50.908;18.092;2023-11-19T03:58:39;37.90;;;18.10;;
57331;SDS011;43164;50.908;18.092;2023-11-19T04:01:15;38.20;;;17.90;;
57331;SDS011;43164;50.908;18.092;2023-11-19T04:03:44;34.70;;;16.80;;
57331;SDS011;43164;50.908;18.092;2023-11-19T04:06:11;35.50;;;17.30;;
57331;SDS011;43164;50.908;18.092;2023-11-19T04:08:38;41.20;;;26.50;;
57331;SDS011;43164;50.908;18.092;2023-11-19T04:11:07;36.90;;;17.80;;
57331;SDS011;43164;50.908;18.092;2023-11-19T04:13:35;36.90;;;19.20;;
57331;SDS011;43164;50.908;18.092;2023-11-19T04:16:03;38.30;;;19.40;;
57331;SDS011;43164;50.908;18.092;2023-11-19T04:18:31;43.80;;;28.00;;
57331;SDS011;43164;50.908;18.092;2023-11-19T04:20:59;40.90;;;19.20;;
57331;SDS011;43164;50.908;18.092;2023-11-19T04:23:27;42.70;;;20.40;;
57331;SDS011;43164;50.908;18.092;2023-11-19T04:25:55;42.50;;;20.90;;
57331;SDS011;43164;50.908;18.092;2023-11-19T04:28:23;48.40;;;29.10;;
57331;SDS011;43164;50.908;18.092;2023-11-19T04:30:53;41.90;;;19.70;;
57331;SDS011;43164;50.908;18.092;2023-11-19T04:33:20;45.50;;;28.90;;
57331;SDS011;43164;50.908;18.092;2023-11-19T04:35:48;40.70;;;20.00;;
57331;SDS011;43164;50.908;18.092;2023-11-19T04:38:16;40.10;;;19.60;;
57331;SDS011;43164;50.908;18.092;2023-11-19T04:40:44;46.30;;;28.80;;
57331;SDS011;43164;50.908;18.092;2023-11-19T04:43:12;45.40;;;21.60;;
57331;SDS011;43164;50.908;18.092;2023-11-19T04:45:40;45.40;;;21.80;;
57331;SDS011;43164;50.908;18.092;2023-11-19T04:48:08;48.60;;;29.60;;
57331;SDS011;43164;50.908;18.092;2023-11-19T04:50:37;48.80;;;30.00;;
57331;SDS011;43164;50.908;18.092;2023-11-19T04:53:05;41.50;;;20.10;;
57331;SDS011;43164;50.908;18.092;2023-11-19T04:55:33;46.20;;;21.40;;
57331;SDS011;43164;50.908;18.092;2023-11-19T04:58:01;49.50;;;31.30;;
57331;SDS011;43164;50.908;18.092;2023-11-19T05:00:30;47.60;;;30.40;;
57331;SDS011;43164;50.908;18.092;2023-11-19T05:02:57;49.10;;;30.00;;
57331;SDS011;43164;50.908;18.092;2023-11-19T05:05:25;42.70;;;20.70;;
57331;SDS011;43164;50.908;18.092;2023-11-19T05:07:54;43.80;;;21.40;;
57331;SDS011;43164;50.908;18.092;2023-11-19T05:10:22;46.10;;;28.60;;
57331;SDS011;43164;50.908;18.092;2023-11-19T05:12:49;47.40;;;30.50;;
57331;SDS011;43164;50.908;18.092;2023-11-19T05:15:16;43.90;;;21.70;;
57331;SDS011;43164;50.908;18.092;2023-11-19T05:17:44;46.70;;;30.70;;
57331;SDS011;43164;50.908;18.092;2023-11-19T05:20:11;41.70;;;21.10;;
57331;SDS011;43164;50.908;18.092;2023-11-19T05:22:42;46.00;;;30.80;;
57331;SDS011;43164;50.908;18.092;2023-11-19T05:25:09;39.90;;;20.20;;
57331;SDS011;43164;50.908;18.092;2023-11-19T05:27:37;48.10;;;32.60;;
57331;SDS011;43164;50.908;18.092;2023-11-19T05:30:05;49.20;;;32.50;;
57331;SDS011;43164;50.908;18.092;2023-11-19T05:32:38;46.70;;;22.90;;
57331;SDS011;43164;50.908;18.092;2023-11-19T05:35:05;44.50;;;22.50;;
57331;SDS011;43164;50.908;18.092;2023-11-19T05:37:34;45.50;;;23.20;;
57331;SDS011;43164;50.908;18.092;2023-11-19T05:40:01;47.60;;;31.40;;
57331;SDS011;43164;50.908;18.092;2023-11-19T05:42:29;46.80;;;30.80;;
57331;SDS011;43164;50.908;18.092;2023-11-19T05:44:57;50.00;;;32.30;;
57331;SDS011;43164;50.908;18.092;2023-11-19T05:47:24;47.20;;;28.50;;
57331;SDS011;43164;50.908;18.092;2023-11-19T05:49:53;44.00;;;21.90;;
57331;SDS011;43164;50.908;18.092;2023-11-19T05:52:20;46.50;;;31.00;;
57331;SDS011;43164;50.908;18.092;2023-11-19T05:54:49;47.50;;;31.20;;
57331;SDS011;43164;50.908;18.092;2023-11-19T05:57:18;46.00;;;30.50;;
57331;SDS011;43164;50.908;18.092;2023-11-19T06:02:21;44.30;;;22.00;;
57331;SDS011;43164;50.908;18.092;2023-11-19T06:04:50;42.10;;;21.60;;
57331;SDS011;43164;50.908;18.092;2023-11-19T06:07:18;46.40;;;30.70;;
57331;SDS011;43164;50.908;18.092;2023-11-19T06:09:46;44.30;;;29.80;;
57331;SDS011;43164;50.908;18.092;2023-11-19T06:12:14;43.60;;;22.40;;
57331;SDS011;43164;50.908;18.092;2023-11-19T06:14:42;45.80;;;29.40;;
57331;SDS011;43164;50.908;18.092;2023-11-19T06:17:10;47.90;;;30.60;;
57331;SDS011;43164;50.908;18.092;2023-11-19T06:19:39;41.90;;;21.00;;
57331;SDS011;43164;50.908;18.092;2023-11-19T06:22:06;44.50;;;30.00;;
57331;SDS011;43164;50.908;18.092;2023-11-19T06:24:34;45.60;;;30.10;;
57331;SDS011;43164;50.908;18.092;2023-11-19T06:27:03;43.20;;;22.10;;
57331;SDS011;43164;50.908;18.092;2023-11-19T06:29:31;43.10;;;29.20;;
57331;SDS011;43164;50.908;18.092;2023-11-19T06:31:59;43.80;;;29.50;;
57331;SDS011;43164;50.908;18.092;2023-11-19T06:34:27;41.30;;;21.10;;
57331;SDS011;43164;50.908;18.092;2023-11-19T06:36:55;40.50;;;19.60;;
57331;SDS011;43164;50.908;18.092;2023-11-19T06:39:23;42.00;;;27.40;;
57331;SDS011;43164;50.908;18.092;2023-11-19T06:41:51;40.30;;;26.60;;
57331;SDS011;43164;50.908;18.092;2023-11-19T06:44:20;40.40;;;27.50;;
57331;SDS011;43164;50.908;18.092;2023-11-19T06:46:48;40.70;;;27.60;;
57331;SDS011;43164;50.908;18.092;2023-11-19T06:49:16;40.10;;;26.70;;
57331;SDS011;43164;50.908;18.092;2023-11-19T06:51:44;42.80;;;27.80;;
57331;SDS011;43164;50.908;18.092;2023-11-19T06:54:13;39.10;;;20.80;;
57331;SDS011;43164;50.908;18.092;2023-11-19T06:56:41;40.20;;;26.40;;
57331;SDS011;43164;50.908;18.092;2023-11-19T06:59:09;39.60;;;26.80;;
57331;SDS011;43164;50.908;18.092;2023-11-19T07:01:36;41.80;;;27.50;;
57331;SDS011;43164;50.908;18.092;2023-11-19T07:04:05;43.10;;;29.10;;
57331;SDS011;43164;50.908;18.092;2023-11-19T07:06:35;40.10;;;27.10;;
57331;SDS011;43164;50.908;18.092;2023-11-19T07:09:03;42.50;;;28.80;;
57331;SDS011;43164;50.908;18.092;2023-11-19T07:11:37;42.60;;;28.20;;
57331;SDS011;43164;50.908;18.092;2023-11-19T07:14:06;43.00;;;28.60;;
57331;SDS011;43164;50.908;18.092;2023-11-19T07:16:35;40.90;;;28.50;;
57331;SDS011;43164;50.908;18.092;2023-11-19T07:19:08;42.20;;;27.50;;
57331;SDS011;43164;50.908;18.092;2023-11-19T07:21:36;40.00;;;27.30;;
57331;SDS011;43164;50.908;18.092;2023-11-19T07:24:12;41.70;;;28.40;;
57331;SDS011;43164;50.908;18.092;2023-11-19T07:26:43;44.50;;;28.50;;
57331;SDS011;43164;50.908;18.092;2023-11-19T07:29:11;44.60;;;28.60;;
57331;SDS011;43164;50.908;18.092;2023-11-19T07:31:38;40.10;;;28.10;;
57331;SDS011;43164;50.908;18.092;2023-11-19T07:34:05;40.10;;;21.40;;
57331;SDS011;43164;50.908;18.092;2023-11-19T07:36:33;38.80;;;26.30;;
57331;SDS011;43164;50.908;18.092;2023-11-19T07:39:00;40.90;;;26.70;;
57331;SDS011;43164;50.908;18.092;2023-11-19T07:41:28;38.80;;;25.70;;
57331;SDS011;43164;50.908;18.092;2023-11-19T07:43:55;37.90;;;25.90;;
57331;SDS011;43164;50.908;18.092;2023-11-19T07:46:23;37.80;;;25.30;;
57331;SDS011;43164;50.908;18.092;2023-11-19T07:48:51;37.90;;;25.70;;
57331;SDS011;43164;50.908;18.092;2023-11-19T07:51:19;39.60;;;25.40;;
57331;SDS011;43164;50.908;18.092;2023-11-19T07:53:47;35.80;;;24.30;;
57331;SDS011;43164;50.908;18.092;2023-11-19T07:56:14;37.80;;;25.20;;
57331;SDS011;43164;50.908;18.092;2023-11-19T07:58:42;35.30;;;24.20;;
57331;SDS011;43164;50.908;18.092;2023-11-19T08:01:09;35.40;;;23.20;;
57331;SDS011;43164;50.908;18.092;2023-11-19T08:03:37;35.50;;;23.50;;
57331;SDS011;43164;50.908;18.092;2023-11-19T08:06:04;35.80;;;23.30;;
57331;SDS011;43164;50.908;18.092;2023-11-19T08:08:33;36.10;;;24.00;;
57331;SDS011;43164;50.908;18.092;2023-11-19T08:11:01;35.90;;;23.70;;
57331;SDS011;43164;50.908;18.092;2023-11-19T08:13:29;32.80;;;22.70;;
57331;SDS011;43164;50.908;18.092;2023-11-19T08:15:57;32.70;;;21.80;;
57331;SDS011;43164;50.908;18.092;2023-11-19T08:18:25;32.70;;;22.50;;
57331;SDS011;43164;50.908;18.092;2023-11-19T08:20:52;31.80;;;20.90;;
57331;SDS011;43164;50.908;18.092;2023-11-19T08:23:20;33.10;;;22.30;;
57331;SDS011;43164;50.908;18.092;2023-11-19T08:25:48;33.40;;;20.70;;
57331;SDS011;43164;50.908;18.092;2023-11-19T08:28:16;30.90;;;20.60;;
57331;SDS011;43164;50.908;18.092;2023-11-19T08:30:44;33.80;;;21.60;;
57331;SDS011;43164;50.908;18.092;2023-11-19T08:33:12;32.00;;;20.40;;
57331;SDS011;43164;50.908;18.092;2023-11-19T08:35:41;30.00;;;20.00;;
57331;SDS011;43164;50.908;18.092;2023-11-19T08:38:09;30.90;;;19.60;;
57331;SDS011;43164;50.908;18.092;2023-11-19T08:40:36;30.70;;;19.90;;
57331;SDS011;43164;50.908;18.092;2023-11-19T08:43:05;30.70;;;19.70;;
57331;SDS011;43164;50.908;18.092;2023-11-19T08:45:33;33.10;;;20.30;;
57331;SDS011;43164;50.908;18.092;2023-11-19T08:48:01;29.70;;;19.90;;
57331;SDS011;43164;50.908;18.092;2023-11-19T08:50:29;28.20;;;18.70;;
57331;SDS011;43164;50.908;18.092;2023-11-19T08:52:56;29.80;;;19.10;;
57331;SDS011;43164;50.908;18.092;2023-11-19T08:55:23;28.40;;;19.00;;
57331;SDS011;43164;50.908;18.092;2023-11-19T08:57:52;29.70;;;18.40;;
57331;SDS011;43164;50.908;18.092;2023-11-19T09:00:20;28.80;;;19.70;;
57331;SDS011;43164;50.908;18.092;2023-11-19T09:02:48;27.30;;;18.30;;
57331;SDS011;43164;50.908;18.092;2023-11-19T09:05:16;27.90;;;18.40;;
57331;SDS011;43164;50.908;18.092;2023-11-19T09:07:43;27.70;;;18.20;;
57331;SDS011;43164;50.908;18.092;2023-11-19T09:10:11;29.70;;;18.90;;
57331;SDS011;43164;50.908;18.092;2023-11-19T09:12:39;25.80;;;17.20;;
57331;SDS011;43164;50.908;18.092;2023-11-19T09:15:07;25.30;;;17.40;;
57331;SDS011;43164;50.908;18.092;2023-11-19T09:17:40;23.70;;;16.30;;
57331;SDS011;43164;50.908;18.092;2023-11-19T09:20:07;25.30;;;17.20;;
57331;SDS011;43164;50.908;18.092;2023-11-19T09:22:42;26.80;;;17.00;;
57331;SDS011;43164;50.908;18.092;2023-11-19T09:25:10;26.70;;;17.40;;
57331;SDS011;43164;50.908;18.092;2023-11-19T09:27:38;23.80;;;16.00;;
57331;SDS011;43164;50.908;18.092;2023-11-19T09:30:06;22.60;;;16.20;;
57331;SDS011;43164;50.908;18.092;2023-11-19T09:32:34;24.10;;;15.80;;
57331;SDS011;43164;50.908;18.092;2023-11-19T09:35:02;23.90;;;15.70;;
57331;SDS011;43164;50.908;18.092;2023-11-19T09:37:30;22.20;;;15.40;;
57331;SDS011;43164;50.908;18.092;2023-11-19T09:39:58;24.50;;;15.80;;
57331;SDS011;43164;50.908;18.092;2023-11-19T09:45:30;24.50;;;16.50;;
57331;SDS011;43164;50.908;18.092;2023-11-19T09:48:05;22.20;;;15.00;;
57331;SDS011;43164;50.908;18.092;2023-11-19T09:50:34;23.40;;;15.20;;
57331;SDS011;43164;50.908;18.092;2023-11-19T09:53:19;20.20;;;12.90;;
57331;SDS011;43164;50.908;18.092;2023-11-19T09:55:47;20.90;;;14.40;;
57331;SDS011;43164;50.908;18.092;2023-11-19T09:58:16;18.80;;;12.50;;
57331;SDS011;43164;50.908;18.092;2023-11-19T10:00:45;20.30;;;13.90;;
57331;SDS011;43164;50.908;18.092;2023-11-19T10:03:15;19.70;;;14.10;;
57331;SDS011;43164;50.908;18.092;2023-11-19T10:05:43;19.20;;;12.90;;
57331;SDS011;43164;50.908;18.092;2023-11-19T10:08:10;19.10;;;12.70;;
57331;SDS011;43164;50.908;18.092;2023-11-19T10:14:24;18.20;;;11.70;;
57331;SDS011;43164;50.908;18.092;2023-11-19T10:16:54;19.40;;;12.40;;
57331;SDS011;43164;50.908;18.092;2023-11-19T10:19:22;18.40;;;12.50;;
57331;SDS011;43164;50.908;18.092;2023-11-19T10:21:53;16.00;;;11.30;;
57331;SDS011;43164;50.908;18.092;2023-11-19T10:24:35;16.20;;;11.20;;
57331;SDS011;43164;50.908;18.092;2023-11-19T10:27:06;17.60;;;12.10;;
57331;SDS011;43164;50.908;18.092;2023-11-19T10:36:02;14.90;;;10.00;;
57331;SDS011;43164;50.908;18.092;2023-11-19T10:38:30;16.40;;;10.60;;
57331;SDS011;43164;50.908;18.092;2023-11-19T10:41:01;15.60;;;10.00;;
57331;SDS011;43164;50.908;18.092;2023-11-19T10:47:08;15.50;;;10.00;;
57331;SDS011;43164;50.908;18.092;2023-11-19T10:49:56;16.00;;;10.70;;
57331;SDS011;43164;50.908;18.092;2023-11-19T10:52:24;17.00;;;10.30;;
57331;SDS011;43164;50.908;18.092;2023-11-19T10:54:53;14.80;;;10.40;;
57331;SDS011;43164;50.908;18.092;2023-11-19T10:57:37;16.60;;;10.50;;
57331;SDS011;43164;50.908;18.092;2023-11-19T11:03:39;17.40;;;10.70;;
57331;SDS011;43164;50.908;18.092;2023-11-19T11:06:13;16.70;;;10.70;;
57331;SDS011;43164;50.908;18.092;2023-11-19T11:08:41;14.90;;;10.30;;
57331;SDS011;43164;50.908;18.092;2023-11-19T11:11:10;15.60;;;10.40;;
57331;SDS011;43164;50.908;18.092;2023-11-19T11:13:42;13.60;;;9.60;;
57331;SDS011;43164;50.908;18.092;2023-11-19T11:16:10;16.00;;;9.70;;
57331;SDS011;43164;50.908;18.092;2023-11-19T11:18:37;16.30;;;10.00;;
57331;SDS011;43164;50.908;18.092;2023-11-19T11:21:09;16.00;;;9.70;;
57331;SDS011;43164;50.908;18.092;2023-11-19T11:32:33;12.70;;;8.70;;
57331;SDS011;43164;50.908;18.092;2023-11-19T11:38:28;13.60;;;8.30;;
57331;SDS011;43164;50.908;18.092;2023-11-19T11:43:50;13.70;;;8.40;;
57331;SDS011;43164;50.908;18.092;2023-11-19T11:49:06;13.40;;;8.70;;
57331;SDS011;43164;50.908;18.092;2023-11-19T11:52:08;11.30;;;8.00;;
57331;SDS011;43164;50.908;18.092;2023-11-19T11:54:33;12.80;;;7.70;;
57331;SDS011;43164;50.908;18.092;2023-11-19T11:57:06;11.90;;;8.50;;
57331;SDS011;43164;50.908;18.092;2023-11-19T11:59:45;13.00;;;8.40;;
57331;SDS011;43164;50.908;18.092;2023-11-19T12:10:26;13.70;;;8.70;;
57331;SDS011;43164;50.908;18.092;2023-11-19T12:22:24;13.80;;;8.90;;
57331;SDS011;43164;50.908;18.092;2023-11-19T12:24:55;12.40;;;8.70;;
57331;SDS011;43164;50.908;18.092;2023-11-19T12:33:35;14.90;;;9.20;;
57331;SDS011;43164;50.908;18.092;2023-11-19T12:36:04;13.70;;;9.40;;
57331;SDS011;43164;50.908;18.092;2023-11-19T12:41:48;15.30;;;9.50;;
57331;SDS011;43164;50.908;18.092;2023-11-19T12:44:39;13.30;;;9.60;;
57331;SDS011;43164;50.908;18.092;2023-11-19T12:47:08;15.40;;;10.00;;
57331;SDS011;43164;50.908;18.092;2023-11-19T12:49:38;14.50;;;9.10;;
57331;SDS011;43164;50.908;18.092;2023-11-19T12:52:17;14.50;;;9.40;;
57331;SDS011;43164;50.908;18.092;2023-11-19T12:55:02;18.70;;;12.30;;
57331;SDS011;43164;50.908;18.092;2023-11-19T13:01:09;17.80;;;11.00;;
57331;SDS011;43164;50.908;18.092;2023-11-19T13:13:59;13.70;;;8.50;;
57331;SDS011;43164;50.908;18.092;2023-11-19T13:17:14;15.10;;;8.50;;
57331;SDS011;43164;50.908;18.092;2023-11-19T13:19:46;13.60;;;8.40;;
57331;SDS011;43164;50.908;18.092;2023-11-19T13:22:15;14.90;;;8.20;;
57331;SDS011;43164;50.908;18.092;2023-11-19T13:24:43;14.30;;;8.60;;
57331;SDS011;43164;50.908;18.092;2023-11-19T13:33:46;13.00;;;8.00;;
57331;SDS011;43164;50.908;18.092;2023-11-19T13:39:53;12.90;;;7.50;;
57331;SDS011;43164;50.908;18.092;2023-11-19T13:42:19;12.30;;;7.50;;
57331;SDS011;43164;50.908;18.092;2023-11-19T13:47:51;12.70;;;8.10;;
57331;SDS011;43164;50.908;18.092;2023-11-19T13:50:19;11.50;;;7.10;;
57331;SDS011;43164;50.908;18.092;2023-11-19T13:53:03;11.90;;;7.40;;
57331;SDS011;43164;50.908;18.092;2023-11-19T13:59:15;10.70;;;6.60;;
57331;SDS011;43164;50.908;18.092;2023-11-19T14:01:25;11.70;;;6.90;;
57331;SDS011;43164;50.908;18.092;2023-11-19T14:06:40;17.10;;;9.90;;
57331;SDS011;43164;50.908;18.092;2023-11-19T14:20:41;12.80;;;6.90;;
57331;SDS011;43164;50.908;18.092;2023-11-19T14:23:12;12.60;;;6.80;;
57331;SDS011;43164;50.908;18.092;2023-11-19T14:25:41;11.80;;;6.40;;
57331;SDS011;43164;50.908;18.092;2023-11-19T14:28:09;12.60;;;7.30;;
57331;SDS011;43164;50.908;18.092;2023-11-19T14:30:37;12.80;;;7.30;;
57331;SDS011;43164;50.908;18.092;2023-11-19T14:33:05;11.00;;;6.60;;
57331;SDS011;43164;50.908;18.092;2023-11-19T14:35:35;12.60;;;7.30;;
57331;SDS011;43164;50.908;18.092;2023-11-19T14:44:33;13.00;;;7.70;;
57331;SDS011;43164;50.908;18.092;2023-11-19T14:49:50;12.90;;;8.30;;
57331;SDS011;43164;50.908;18.092;2023-11-19T14:52:18;13.50;;;8.00;;
57331;SDS011;43164;50.908;18.092;2023-11-19T14:54:46;13.30;;;8.20;;
57331;SDS011;43164;50.908;18.092;2023-11-19T14:57:13;13.20;;;7.70;;
57331;SDS011;43164;50.908;18.092;2023-11-19T14:59:41;13.70;;;8.20;;
57331;SDS011;43164;50.908;18.092;2023-11-19T15:02:08;14.50;;;8.10;;
57331;SDS011;43164;50.908;18.092;2023-11-19T15:04:37;16.40;;;9.90;;
57331;SDS011;43164;50.908;18.092;2023-11-19T15:07:04;14.40;;;9.00;;
57331;SDS011;43164;50.908;18.092;2023-11-19T15:09:32;15.80;;;9.00;;
57331;SDS011;43164;50.908;18.092;2023-11-19T15:12:05;15.70;;;9.30;;
57331;SDS011;43164;50.908;18.092;2023-11-19T15:14:34;15.40;;;9.70;;
57331;SDS011;43164;50.908;18.092;2023-11-19T15:17:02;17.60;;;10.90;;
57331;SDS011;43164;50.908;18.092;2023-11-19T15:19:30;16.70;;;10.40;;
57331;SDS011;43164;50.908;18.092;2023-11-19T15:21:58;17.20;;;10.70;;
57331;SDS011;43164;50.908;18.092;2023-11-19T15:24:25;18.50;;;11.40;;
57331;SDS011;43164;50.908;18.092;2023-11-19T15:26:53;19.20;;;11.70;;
57331;SDS011;43164;50.908;18.092;2023-11-19T15:29:22;17.90;;;10.70;;
57331;SDS011;43164;50.908;18.092;2023-11-19T15:31:49;16.80;;;11.50;;
57331;SDS011;43164;50.908;18.092;2023-11-19T15:34:17;16.90;;;10.00;;
57331;SDS011;43164;50.908;18.092;2023-11-19T15:36:45;17.30;;;10.40;;
57331;SDS011;43164;50.908;18.092;2023-11-19T15:39:13;17.20;;;10.30;;
57331;SDS011;43164;50.908;18.092;2023-11-19T15:41:43;18.00;;;10.90;;
57331;SDS011;43164;50.908;18.092;2023-11-19T15:44:11;18.50;;;10.80;;
57331;SDS011;43164;50.908;18.092;2023-11-19T15:46:40;17.50;;;11.00;;
57331;SDS011;43164;50.908;18.092;2023-11-19T15:49:08;17.70;;;10.60;;
57331;SDS011;43164;50.908;18.092;2023-11-19T15:51:36;18.00;;;11.20;;
57331;SDS011;43164;50.908;18.092;2023-11-19T15:54:04;17.80;;;10.70;;
57331;SDS011;43164;50.908;18.092;2023-11-19T15:56:32;18.50;;;11.20;;
57331;SDS011;43164;50.908;18.092;2023-11-19T15:59:01;19.20;;;11.10;;
57331;SDS011;43164;50.908;18.092;2023-11-19T16:01:34;21.30;;;12.50;;
57331;SDS011;43164;50.908;18.092;2023-11-19T16:04:01;19.50;;;11.90;;
57331;SDS011;43164;50.908;18.092;2023-11-19T16:06:29;19.40;;;11.50;;
57331;SDS011;43164;50.908;18.092;2023-11-19T16:08:57;18.80;;;11.70;;
57331;SDS011;43164;50.908;18.092;2023-11-19T16:11:25;20.70;;;12.80;;
57331;SDS011;43164;50.908;18.092;2023-11-19T16:13:54;20.10;;;12.60;;
57331;SDS011;43164;50.908;18.092;2023-11-19T16:16:27;22.00;;;12.60;;
57331;SDS011;43164;50.908;18.092;2023-11-19T16:18:55;20.70;;;13.00;;
57331;SDS011;43164;50.908;18.092;2023-11-19T16:21:22;20.70;;;12.60;;
57331;SDS011;43164;50.908;18.092;2023-11-19T16:23:50;23.10;;;13.50;;
57331;SDS011;43164;50.908;18.092;2023-11-19T16:26:25;21.60;;;13.30;;
57331;SDS011;43164;50.908;18.092;2023-11-19T16:28:54;22.10;;;13.80;;